sensor_id;sensor_type;location;lat;lon;timestamp;pressure;altitude;pressure_sealevel;temperature;humidity
37858;BME280;23695;55.868;37.472;2024-03-29T00:39:15;98790.22;;;6.88;55.94
37858;BME280;23695;55.868;37.472;2024-03-29T00:42:21;98778.88;;;6.65;56.14
37858;BME280;23695;55.868;37.472;2024-03-29T00:45:00;98780.28;;;6.79;56.12
37858;BME280;23695;55.868;37.472;2024-03-29T00:47:29;98770.84;;;6.82;56.37
37858;BME280;23695;55.868;37.472;2024-03-29T00:50:13;98767.50;;;6.85;56.53
37858;BME280;23695;55.868;37.472;2024-03-29T02:06:19;98658.94;;;6.39;57.32
37858;BME280;23695;55.868;37.472;2024-03-29T02:21:09;98642.84;;;6.39;56.96
37858;BME280;23695;55.868;37.472;2024-03-29T02:24:20;98635.44;;;6.45;56.51
37858;BME280;23695;55.868;37.472;2024-03-29T02:27:15;98628.66;;;6.56;56.19
37858;BME280;23695;55.868;37.472;2024-03-29T02:30:20;98615.38;;;6.60;56.02
37858;BME280;23695;55.868;37.472;2024-03-29T02:33:06;98612.25;;;6.06;57.61
37858;BME280;23695;55.868;37.472;2024-03-29T02:35:32;98614.91;;;5.88;57.61
37858;BME280;23695;55.868;37.472;2024-03-29T02:38:03;98598.66;;;5.76;57.68
37858;BME280;23695;55.868;37.472;2024-03-29T02:40:31;98601.28;;;5.50;58.69
37858;BME280;23695;55.868;37.472;2024-03-29T02:43:02;98594.81;;;5.43;59.01
37858;BME280;23695;55.868;37.472;2024-03-29T02:48:44;98585.34;;;5.45;58.55
37858;BME280;23695;55.868;37.472;2024-03-29T02:51:44;98584.88;;;5.34;58.75
37858;BME280;23695;55.868;37.472;2024-03-29T02:54:10;98588.00;;;5.36;59.05
37858;BME280;23695;55.868;37.472;2024-03-29T02:56:36;98575.66;;;5.84;58.10
37858;BME280;23695;55.868;37.472;2024-03-29T02:59:10;98573.31;;;6.00;57.23
37858;BME280;23695;55.868;37.472;2024-03-29T03:01:40;98573.78;;;6.28;56.32
37858;BME280;23695;55.868;37.472;2024-03-29T03:04:12;98572.81;;;6.23;55.80
37858;BME280;23695;55.868;37.472;2024-03-29T03:06:46;98573.63;;;5.98;56.28
37858;BME280;23695;55.868;37.472;2024-03-29T03:09:12;98564.13;;;6.35;56.12
37858;BME280;23695;55.868;37.472;2024-03-29T03:11:37;98565.72;;;5.76;57.41
37858;BME280;23695;55.868;37.472;2024-03-29T03:14:03;98555.94;;;6.23;56.12
37858;BME280;23695;55.868;37.472;2024-03-29T03:16:29;98551.00;;;6.51;55.44
37858;BME280;23695;55.868;37.472;2024-03-29T03:18:55;98552.03;;;6.20;56.14
37858;BME280;23695;55.868;37.472;2024-03-29T03:21:20;98544.94;;;5.99;56.44
37858;BME280;23695;55.868;37.472;2024-03-29T03:23:46;98545.41;;;5.75;57.31
37858;BME280;23695;55.868;37.472;2024-03-29T03:26:14;98549.94;;;5.74;57.29
37858;BME280;23695;55.868;37.472;2024-03-29T03:28:40;98534.66;;;6.09;56.14
37858;BME280;23695;55.868;37.472;2024-03-29T03:31:06;98546.69;;;5.94;56.64
37858;BME280;23695;55.868;37.472;2024-03-29T03:33:34;98550.25;;;5.81;56.63
37858;BME280;23695;55.868;37.472;2024-03-29T03:36:00;98541.44;;;6.15;56.17
37858;BME280;23695;55.868;37.472;2024-03-29T03:38:27;98546.50;;;6.08;56.09
37858;BME280;23695;55.868;37.472;2024-03-29T03:40:52;98537.50;;;6.21;55.66
37858;BME280;23695;55.868;37.472;2024-03-29T03:43:18;98552.28;;;5.41;57.72
37858;BME280;23695;55.868;37.472;2024-03-29T03:45:44;98541.28;;;5.60;57.70
37858;BME280;23695;55.868;37.472;2024-03-29T03:48:10;98536.84;;;5.73;56.80
37858;BME280;23695;55.868;37.472;2024-03-29T03:50:37;98523.78;;;5.71;57.30
37858;BME280;23695;55.868;37.472;2024-03-29T03:53:03;98520.00;;;5.81;56.70
37858;BME280;23695;55.868;37.472;2024-03-29T03:55:29;98517.47;;;5.32;58.22
37858;BME280;23695;55.868;37.472;2024-03-29T03:57:55;98508.34;;;5.51;57.76
37858;BME280;23695;55.868;37.472;2024-03-29T04:00:22;98505.22;;;5.57;57.91
37858;BME280;23695;55.868;37.472;2024-03-29T04:02:51;98510.09;;;5.99;56.67
37858;BME280;23695;55.868;37.472;2024-03-29T04:05:21;98508.53;;;5.97;56.40
37858;BME280;23695;55.868;37.472;2024-03-29T04:07:47;98507.25;;;5.69;57.35
37858;BME280;23695;55.868;37.472;2024-03-29T04:10:16;98495.25;;;6.18;56.19
37858;BME280;23695;55.868;37.472;2024-03-29T04:12:41;98494.50;;;5.66;56.79
37858;BME280;23695;55.868;37.472;2024-03-29T04:15:07;98476.53;;;5.84;57.02
37858;BME280;23695;55.868;37.472;2024-03-29T04:17:34;98480.56;;;5.21;58.54
37858;BME280;23695;55.868;37.472;2024-03-29T04:20:01;98479.66;;;5.43;57.86
37858;BME280;23695;55.868;37.472;2024-03-29T04:22:33;98477.78;;;5.69;56.88
37858;BME280;23695;55.868;37.472;2024-03-29T04:24:58;98469.41;;;5.79;57.36
37858;BME280;23695;55.868;37.472;2024-03-29T04:27:25;98467.44;;;6.32;56.28
37858;BME280;23695;55.868;37.472;2024-03-29T04:29:52;98462.72;;;6.75;54.96
37858;BME280;23695;55.868;37.472;2024-03-29T04:32:20;98461.22;;;6.87;54.44
37858;BME280;23695;55.868;37.472;2024-03-29T04:34:52;98472.06;;;6.22;55.74
37858;BME280;23695;55.868;37.472;2024-03-29T04:37:18;98465.16;;;6.04;56.14
37858;BME280;23695;55.868;37.472;2024-03-29T04:39:44;98447.97;;;5.79;57.15
37858;BME280;23695;55.868;37.472;2024-03-29T04:42:11;98448.44;;;5.73;57.20
37858;BME280;23695;55.868;37.472;2024-03-29T04:44:37;98436.81;;;5.94;56.62
37858;BME280;23695;55.868;37.472;2024-03-29T04:47:03;98435.50;;;6.01;56.37
37858;BME280;23695;55.868;37.472;2024-03-29T04:49:29;98431.09;;;5.87;56.90
37858;BME280;23695;55.868;37.472;2024-03-29T04:51:54;98418.63;;;6.09;56.19
37858;BME280;23695;55.868;37.472;2024-03-29T04:54:20;98425.44;;;6.44;54.93
37858;BME280;23695;55.868;37.472;2024-03-29T04:56:46;98414.22;;;6.04;56.01
37858;BME280;23695;55.868;37.472;2024-03-29T04:59:14;98410.28;;;6.10;56.33
37858;BME280;23695;55.868;37.472;2024-03-29T05:01:40;98398.81;;;6.01;56.28
37858;BME280;23695;55.868;37.472;2024-03-29T05:04:06;98391.22;;;6.03;56.45
37858;BME280;23695;55.868;37.472;2024-03-29T05:06:31;98387.78;;;5.85;56.79
37858;BME280;23695;55.868;37.472;2024-03-29T05:08:57;98396.09;;;6.10;56.19
37858;BME280;23695;55.868;37.472;2024-03-29T05:11:23;98406.19;;;6.04;56.25
37858;BME280;23695;55.868;37.472;2024-03-29T05:13:49;98398.75;;;6.18;56.05
37858;BME280;23695;55.868;37.472;2024-03-29T05:16:17;98407.09;;;6.85;54.84
37858;BME280;23695;55.868;37.472;2024-03-29T05:18:43;98422.06;;;8.02;52.87
37858;BME280;23695;55.868;37.472;2024-03-29T05:21:09;98406.66;;;9.49;49.85
37858;BME280;23695;55.868;37.472;2024-03-29T05:23:35;98406.59;;;11.39;45.81
37858;BME280;23695;55.868;37.472;2024-03-29T05:26:01;98399.06;;;11.48;42.29
37858;BME280;23695;55.868;37.472;2024-03-29T05:28:27;98386.13;;;11.96;42.95
37858;BME280;23695;55.868;37.472;2024-03-29T05:30:52;98384.81;;;14.12;39.92
37858;BME280;23695;55.868;37.472;2024-03-29T05:33:18;98388.47;;;12.96;40.03
37858;BME280;23695;55.868;37.472;2024-03-29T05:35:44;98375.88;;;14.11;37.68
37858;BME280;23695;55.868;37.472;2024-03-29T05:38:10;98367.56;;;14.38;38.33
37858;BME280;23695;55.868;37.472;2024-03-29T05:40:35;98371.44;;;15.65;36.70
37858;BME280;23695;55.868;37.472;2024-03-29T05:43:08;98374.16;;;17.32;32.39
37858;BME280;23695;55.868;37.472;2024-03-29T05:45:33;98356.38;;;16.74;34.73
37858;BME280;23695;55.868;37.472;2024-03-29T05:48:02;98364.72;;;17.47;32.52
37858;BME280;23695;55.868;37.472;2024-03-29T05:50:33;98356.88;;;15.25;34.31
37858;BME280;23695;55.868;37.472;2024-03-29T05:52:59;98358.69;;;16.65;33.67
37858;BME280;23695;55.868;37.472;2024-03-29T05:55:24;98347.72;;;15.72;35.19
37858;BME280;23695;55.868;37.472;2024-03-29T05:57:50;98345.06;;;16.58;33.98
37858;BME280;23695;55.868;37.472;2024-03-29T06:00:16;98341.59;;;16.47;33.79
37858;BME280;23695;55.868;37.472;2024-03-29T06:02:44;98353.66;;;16.28;33.82
37858;BME280;23695;55.868;37.472;2024-03-29T06:05:10;98346.47;;;17.26;32.77
37858;BME280;23695;55.868;37.472;2024-03-29T06:07:36;98357.28;;;17.48;32.36
37858;BME280;23695;55.868;37.472;2024-03-29T06:10:05;98342.72;;;18.35;31.15
37858;BME280;23695;55.868;37.472;2024-03-29T06:12:34;98338.75;;;17.95;31.31
37858;BME280;23695;55.868;37.472;2024-03-29T06:15:04;98331.81;;;16.78;32.65
37858;BME280;23695;55.868;37.472;2024-03-29T06:17:32;98347.38;;;15.77;34.07
37858;BME280;23695;55.868;37.472;2024-03-29T06:19:58;98353.06;;;15.44;34.28
37858;BME280;23695;55.868;37.472;2024-03-29T06:22:24;98346.69;;;15.04;34.93
37858;BME280;23695;55.868;37.472;2024-03-29T06:24:53;98336.97;;;14.41;36.67
37858;BME280;23695;55.868;37.472;2024-03-29T06:27:19;98346.88;;;14.70;35.91
37858;BME280;23695;55.868;37.472;2024-03-29T06:29:45;98351.44;;;14.56;36.14
37858;BME280;23695;55.868;37.472;2024-03-29T06:32:11;98358.41;;;14.53;36.44
37858;BME280;23695;55.868;37.472;2024-03-29T06:34:36;98361.91;;;14.54;36.27
37858;BME280;23695;55.868;37.472;2024-03-29T06:37:02;98357.91;;;14.40;36.53
37858;BME280;23695;55.868;37.472;2024-03-29T06:39:34;98358.56;;;14.27;36.68
37858;BME280;23695;55.868;37.472;2024-03-29T06:42:00;98355.94;;;13.93;37.08
37858;BME280;23695;55.868;37.472;2024-03-29T06:44:26;98363.19;;;13.45;37.59
37858;BME280;23695;55.868;37.472;2024-03-29T06:50:21;98355.66;;;10.83;42.99
37858;BME280;23695;55.868;37.472;2024-03-29T06:52:47;98351.81;;;9.57;46.01
37858;BME280;23695;55.868;37.472;2024-03-29T06:59:31;98343.72;;;8.49;49.55
37858;BME280;23695;55.868;37.472;2024-03-29T07:01:57;98347.16;;;8.37;49.70
37858;BME280;23695;55.868;37.472;2024-03-29T07:04:24;98345.59;;;8.24;50.58
37858;BME280;23695;55.868;37.472;2024-03-29T07:06:51;98341.56;;;8.55;49.74
37858;BME280;23695;55.868;37.472;2024-03-29T07:09:24;98353.88;;;8.68;49.14
37858;BME280;23695;55.868;37.472;2024-03-29T07:15:10;98354.66;;;9.21;48.10
37858;BME280;23695;55.868;37.472;2024-03-29T07:17:38;98336.56;;;10.09;46.70
37858;BME280;23695;55.868;37.472;2024-03-29T07:41:35;98325.38;;;10.58;44.75
37858;BME280;23695;55.868;37.472;2024-03-29T07:44:03;98328.38;;;11.46;43.28
37858;BME280;23695;55.868;37.472;2024-03-29T07:46:35;98326.25;;;11.35;43.26
37858;BME280;23695;55.868;37.472;2024-03-29T07:49:01;98323.34;;;11.86;42.76
37858;BME280;23695;55.868;37.472;2024-03-29T07:51:27;98314.44;;;11.86;42.92
37858;BME280;23695;55.868;37.472;2024-03-29T07:53:55;98307.31;;;12.24;41.93
37858;BME280;23695;55.868;37.472;2024-03-29T07:56:21;98311.19;;;12.49;41.61
37858;BME280;23695;55.868;37.472;2024-03-29T07:58:53;98296.72;;;12.64;40.65
37858;BME280;23695;55.868;37.472;2024-03-29T08:01:23;98303.34;;;12.70;40.48
37858;BME280;23695;55.868;37.472;2024-03-29T08:03:53;98300.94;;;11.67;42.43
37858;BME280;23695;55.868;37.472;2024-03-29T08:06:19;98304.53;;;11.94;41.56
37858;BME280;23695;55.868;37.472;2024-03-29T08:08:45;98306.38;;;11.47;42.34
37858;BME280;23695;55.868;37.472;2024-03-29T08:11:11;98302.72;;;11.17;43.11
37858;BME280;23695;55.868;37.472;2024-03-29T08:13:37;98305.41;;;10.97;43.48
37858;BME280;23695;55.868;37.472;2024-03-29T08:16:03;98299.59;;;10.09;45.45
37858;BME280;23695;55.868;37.472;2024-03-29T08:18:31;98285.75;;;10.27;44.86
37858;BME280;23695;55.868;37.472;2024-03-29T08:20:57;98286.09;;;10.09;45.85
37858;BME280;23695;55.868;37.472;2024-03-29T08:23:23;98293.22;;;10.17;45.69
37858;BME280;23695;55.868;37.472;2024-03-29T08:25:49;98271.72;;;10.37;45.37
37858;BME280;23695;55.868;37.472;2024-03-29T08:28:15;98276.88;;;10.10;45.80
37858;BME280;23695;55.868;37.472;2024-03-29T08:30:41;98273.94;;;10.00;46.00
37858;BME280;23695;55.868;37.472;2024-03-29T08:33:07;98286.00;;;10.21;45.52
37858;BME280;23695;55.868;37.472;2024-03-29T08:35:33;98291.91;;;10.11;45.77
37858;BME280;23695;55.868;37.472;2024-03-29T08:38:00;98278.72;;;9.75;47.45
37858;BME280;23695;55.868;37.472;2024-03-29T08:40:27;98263.56;;;9.54;47.87
37858;BME280;23695;55.868;37.472;2024-03-29T08:42:53;98259.56;;;9.80;47.50
37858;BME280;23695;55.868;37.472;2024-03-29T08:45:19;98274.44;;;10.05;47.06
37858;BME280;23695;55.868;37.472;2024-03-29T08:47:45;98270.34;;;10.27;46.75
37858;BME280;23695;55.868;37.472;2024-03-29T08:50:10;98274.00;;;10.70;45.98
37858;BME280;23695;55.868;37.472;2024-03-29T08:52:36;98264.31;;;10.69;45.92
37858;BME280;23695;55.868;37.472;2024-03-29T08:55:02;98274.28;;;10.49;46.68
37858;BME280;23695;55.868;37.472;2024-03-29T08:57:29;98285.00;;;10.81;45.79
37858;BME280;23695;55.868;37.472;2024-03-29T08:59:54;98284.34;;;10.68;46.13
37858;BME280;23695;55.868;37.472;2024-03-29T09:02:20;98279.22;;;10.63;46.05
37858;BME280;23695;55.868;37.472;2024-03-29T09:04:46;98285.84;;;10.65;46.15
37858;BME280;23695;55.868;37.472;2024-03-29T09:07:11;98287.34;;;10.63;46.25
37858;BME280;23695;55.868;37.472;2024-03-29T09:09:37;98295.91;;;10.68;46.21
37858;BME280;23695;55.868;37.472;2024-03-29T09:12:03;98281.03;;;10.39;47.12
37858;BME280;23695;55.868;37.472;2024-03-29T09:14:32;98282.16;;;10.38;46.90
37858;BME280;23695;55.868;37.472;2024-03-29T09:16:57;98285.41;;;10.28;47.06
37858;BME280;23695;55.868;37.472;2024-03-29T09:19:23;98262.44;;;10.34;46.99
37858;BME280;23695;55.868;37.472;2024-03-29T09:21:49;98267.94;;;9.90;48.14
37858;BME280;23695;55.868;37.472;2024-03-29T09:24:14;98264.94;;;9.80;48.62
37858;BME280;23695;55.868;37.472;2024-03-29T09:26:40;98260.88;;;10.02;47.68
37858;BME280;23695;55.868;37.472;2024-03-29T09:29:06;98246.06;;;9.96;48.46
37858;BME280;23695;55.868;37.472;2024-03-29T09:31:31;98256.31;;;10.06;48.44
37858;BME280;23695;55.868;37.472;2024-03-29T09:33:57;98253.03;;;10.12;48.69
37858;BME280;23695;55.868;37.472;2024-03-29T09:36:23;98259.03;;;10.06;48.16
37858;BME280;23695;55.868;37.472;2024-03-29T09:38:50;98275.03;;;10.30;48.52
37858;BME280;23695;55.868;37.472;2024-03-29T09:41:17;98263.13;;;10.50;48.18
37858;BME280;23695;55.868;37.472;2024-03-29T09:43:43;98272.31;;;10.46;47.87
37858;BME280;23695;55.868;37.472;2024-03-29T09:46:09;98264.38;;;10.53;47.82
37858;BME280;23695;55.868;37.472;2024-03-29T09:48:37;98271.44;;;10.42;47.58
37858;BME280;23695;55.868;37.472;2024-03-29T09:51:04;98260.91;;;10.53;47.34
37858;BME280;23695;55.868;37.472;2024-03-29T09:53:32;98249.44;;;10.59;47.68
37858;BME280;23695;55.868;37.472;2024-03-29T09:56:00;98238.16;;;10.92;47.09
37858;BME280;23695;55.868;37.472;2024-03-29T09:58:25;98246.13;;;11.24;46.94
37858;BME280;23695;55.868;37.472;2024-03-29T10:00:51;98229.16;;;11.27;46.51
37858;BME280;23695;55.868;37.472;2024-03-29T10:03:17;98247.63;;;11.44;45.99
37858;BME280;23695;55.868;37.472;2024-03-29T10:05:43;98247.34;;;11.49;45.87
37858;BME280;23695;55.868;37.472;2024-03-29T10:08:09;98245.66;;;11.41;46.03
37858;BME280;23695;55.868;37.472;2024-03-29T10:10:35;98227.44;;;11.38;45.80
37858;BME280;23695;55.868;37.472;2024-03-29T10:13:00;98225.03;;;11.33;45.78
37858;BME280;23695;55.868;37.472;2024-03-29T10:15:29;98241.84;;;11.23;46.04
37858;BME280;23695;55.868;37.472;2024-03-29T10:17:55;98239.63;;;11.28;45.79
37858;BME280;23695;55.868;37.472;2024-03-29T10:20:20;98228.38;;;11.26;46.05
37858;BME280;23695;55.868;37.472;2024-03-29T10:22:46;98231.81;;;11.04;46.54
37858;BME280;23695;55.868;37.472;2024-03-29T10:25:15;98239.47;;;11.21;46.06
37858;BME280;23695;55.868;37.472;2024-03-29T10:27:41;98225.63;;;11.03;46.32
37858;BME280;23695;55.868;37.472;2024-03-29T10:30:08;98220.00;;;11.12;46.17
37858;BME280;23695;55.868;37.472;2024-03-29T10:32:37;98214.50;;;11.05;46.42
37858;BME280;23695;55.868;37.472;2024-03-29T10:35:03;98217.53;;;11.03;46.98
37858;BME280;23695;55.868;37.472;2024-03-29T10:37:31;98216.13;;;11.10;46.53
37858;BME280;23695;55.868;37.472;2024-03-29T10:39:57;98226.91;;;11.10;46.57
37858;BME280;23695;55.868;37.472;2024-03-29T10:42:23;98225.28;;;10.86;47.08
37858;BME280;23695;55.868;37.472;2024-03-29T10:44:49;98234.47;;;11.00;46.50
37858;BME280;23695;55.868;37.472;2024-03-29T10:47:19;98222.03;;;10.57;47.43
37858;BME280;23695;55.868;37.472;2024-03-29T10:49:50;98238.03;;;10.66;47.71
37858;BME280;23695;55.868;37.472;2024-03-29T10:52:21;98214.28;;;10.75;47.13
37858;BME280;23695;55.868;37.472;2024-03-29T10:54:47;98219.97;;;10.89;47.36
37858;BME280;23695;55.868;37.472;2024-03-29T10:57:23;98214.63;;;10.93;47.31
37858;BME280;23695;55.868;37.472;2024-03-29T11:00:03;98210.31;;;10.88;47.27
37858;BME280;23695;55.868;37.472;2024-03-29T11:02:57;98200.31;;;11.12;46.84
37858;BME280;23695;55.868;37.472;2024-03-29T11:05:23;98204.47;;;11.05;47.00
37858;BME280;23695;55.868;37.472;2024-03-29T11:07:52;98214.31;;;11.17;46.75
37858;BME280;23695;55.868;37.472;2024-03-29T11:10:29;98217.81;;;11.18;47.22
37858;BME280;23695;55.868;37.472;2024-03-29T11:15:36;98207.13;;;11.25;47.09
37858;BME280;23695;55.868;37.472;2024-03-29T11:18:03;98194.88;;;11.08;47.06
37858;BME280;23695;55.868;37.472;2024-03-29T11:20:30;98193.19;;;11.46;46.50
37858;BME280;23695;55.868;37.472;2024-03-29T11:22:56;98200.16;;;11.47;46.45
37858;BME280;23695;55.868;37.472;2024-03-29T11:25:22;98203.09;;;11.15;47.05
37858;BME280;23695;55.868;37.472;2024-03-29T11:27:48;98206.44;;;11.09;47.23
37858;BME280;23695;55.868;37.472;2024-03-29T11:30:17;98209.97;;;11.13;47.46
37858;BME280;23695;55.868;37.472;2024-03-29T11:32:42;98216.44;;;11.27;47.39
37858;BME280;23695;55.868;37.472;2024-03-29T11:35:14;98229.53;;;11.25;47.11
37858;BME280;23695;55.868;37.472;2024-03-29T11:37:40;98215.78;;;10.92;47.88
37858;BME280;23695;55.868;37.472;2024-03-29T11:40:10;98220.88;;;11.16;47.84
37858;BME280;23695;55.868;37.472;2024-03-29T11:45:03;98221.34;;;11.22;47.42
37858;BME280;23695;55.868;37.472;2024-03-29T11:47:29;98221.94;;;11.12;47.71
37858;BME280;23695;55.868;37.472;2024-03-29T11:49:58;98207.59;;;11.07;48.31
37858;BME280;23695;55.868;37.472;2024-03-29T11:52:26;98218.63;;;11.22;47.80
37858;BME280;23695;55.868;37.472;2024-03-29T11:54:54;98211.41;;;11.49;47.41
37858;BME280;23695;55.868;37.472;2024-03-29T11:57:19;98227.88;;;11.63;47.21
37858;BME280;23695;55.868;37.472;2024-03-29T11:59:45;98221.34;;;11.87;47.31
37858;BME280;23695;55.868;37.472;2024-03-29T12:02:13;98203.69;;;11.97;46.96
37858;BME280;23695;55.868;37.472;2024-03-29T12:04:42;98204.25;;;11.83;46.66
37858;BME280;23695;55.868;37.472;2024-03-29T12:07:08;98204.38;;;11.90;46.97
37858;BME280;23695;55.868;37.472;2024-03-29T12:09:33;98197.56;;;11.77;46.42
37858;BME280;23695;55.868;37.472;2024-03-29T12:11:59;98206.66;;;11.65;46.67
37858;BME280;23695;55.868;37.472;2024-03-29T12:14:25;98213.50;;;11.36;47.21
37858;BME280;23695;55.868;37.472;2024-03-29T12:16:53;98202.88;;;11.24;47.84
37858;BME280;23695;55.868;37.472;2024-03-29T12:19:25;98204.06;;;11.26;47.97
37858;BME280;23695;55.868;37.472;2024-03-29T12:21:52;98215.72;;;11.30;48.04
37858;BME280;23695;55.868;37.472;2024-03-29T12:24:17;98213.69;;;11.47;48.13
37858;BME280;23695;55.868;37.472;2024-03-29T12:29:28;98218.00;;;11.74;47.53
37858;BME280;23695;55.868;37.472;2024-03-29T12:32:01;98221.25;;;11.83;47.60
37858;BME280;23695;55.868;37.472;2024-03-29T12:34:27;98225.31;;;11.93;47.72
37858;BME280;23695;55.868;37.472;2024-03-29T12:36:52;98220.81;;;12.04;47.63
37858;BME280;23695;55.868;37.472;2024-03-29T12:39:18;98217.88;;;12.13;47.39
37858;BME280;23695;55.868;37.472;2024-03-29T12:41:46;98211.59;;;12.35;46.96
37858;BME280;23695;55.868;37.472;2024-03-29T12:44:12;98213.06;;;12.29;46.57
37858;BME280;23695;55.868;37.472;2024-03-29T12:46:38;98217.00;;;12.35;47.11
37858;BME280;23695;55.868;37.472;2024-03-29T12:49:33;98211.28;;;12.40;46.97
37858;BME280;23695;55.868;37.472;2024-03-29T13:59:24;98192.72;;;11.17;52.36
37858;BME280;23695;55.868;37.472;2024-03-29T14:04:38;98187.91;;;11.07;52.02
37858;BME280;23695;55.868;37.472;2024-03-29T14:07:04;98191.75;;;11.06;52.11
37858;BME280;23695;55.868;37.472;2024-03-29T14:09:30;98193.59;;;11.02;52.13
37858;BME280;23695;55.868;37.472;2024-03-29T14:11:59;98195.88;;;11.00;52.76
37858;BME280;23695;55.868;37.472;2024-03-29T14:14:25;98197.78;;;10.99;52.04
37858;BME280;23695;55.868;37.472;2024-03-29T14:33:18;98203.50;;;10.75;53.22
37858;BME280;23695;55.868;37.472;2024-03-29T14:36:07;98207.59;;;10.69;53.67
37858;BME280;23695;55.868;37.472;2024-03-29T14:38:33;98186.66;;;10.62;53.30
37858;BME280;23695;55.868;37.472;2024-03-29T14:41:01;98190.84;;;10.60;53.50
37858;BME280;23695;55.868;37.472;2024-03-29T14:43:35;98203.75;;;10.15;54.87
37858;BME280;23695;55.868;37.472;2024-03-29T14:46:31;98202.59;;;10.32;54.53
37858;BME280;23695;55.868;37.472;2024-03-29T14:49:07;98202.59;;;10.32;54.51
37858;BME280;23695;55.868;37.472;2024-03-29T14:51:35;98206.63;;;10.07;55.25
37858;BME280;23695;55.868;37.472;2024-03-29T14:54:02;98211.06;;;9.64;56.21
37858;BME280;23695;55.868;37.472;2024-03-29T14:56:28;98206.63;;;9.56;56.66
37858;BME280;23695;55.868;37.472;2024-03-29T14:59:13;98198.00;;;9.66;56.32
37858;BME280;23695;55.868;37.472;2024-03-29T15:13:29;98202.91;;;10.27;54.54
37858;BME280;23695;55.868;37.472;2024-03-29T15:16:04;98203.50;;;10.20;54.47
37858;BME280;23695;55.868;37.472;2024-03-29T15:22:15;98215.97;;;10.25;54.58
37858;BME280;23695;55.868;37.472;2024-03-29T15:47:29;98213.13;;;10.37;54.31
37858;BME280;23695;55.868;37.472;2024-03-29T15:49:55;98222.84;;;10.42;54.19
37858;BME280;23695;55.868;37.472;2024-03-29T15:52:38;98216.47;;;10.31;54.30
37858;BME280;23695;55.868;37.472;2024-03-29T15:55:26;98211.06;;;10.31;54.28
37858;BME280;23695;55.868;37.472;2024-03-29T15:58:14;98216.03;;;10.29;55.08
37858;BME280;23695;55.868;37.472;2024-03-29T16:01:03;98219.16;;;10.31;55.39
37858;BME280;23695;55.868;37.472;2024-03-29T16:03:55;98215.78;;;10.34;55.30
37858;BME280;23695;55.868;37.472;2024-03-29T16:06:26;98218.16;;;10.39;54.78
37858;BME280;23695;55.868;37.472;2024-03-29T16:08:57;98210.84;;;10.39;55.23
37858;BME280;23695;55.868;37.472;2024-03-29T16:11:34;98211.56;;;10.36;55.67
37858;BME280;23695;55.868;37.472;2024-03-29T16:14:00;98213.28;;;10.44;55.18
37858;BME280;23695;55.868;37.472;2024-03-29T16:16:26;98216.41;;;10.46;54.87
37858;BME280;23695;55.868;37.472;2024-03-29T16:18:51;98219.47;;;10.45;55.01
37858;BME280;23695;55.868;37.472;2024-03-29T16:21:36;98220.88;;;10.39;55.43
37858;BME280;23695;55.868;37.472;2024-03-29T16:24:17;98225.84;;;10.37;55.40
37858;BME280;23695;55.868;37.472;2024-03-29T16:27:18;98218.38;;;10.30;55.30
37858;BME280;23695;55.868;37.472;2024-03-29T16:29:55;98225.16;;;10.24;56.16
37858;BME280;23695;55.868;37.472;2024-03-29T16:32:23;98222.63;;;10.31;55.56
37858;BME280;23695;55.868;37.472;2024-03-29T16:34:58;98222.22;;;10.29;55.54
37858;BME280;23695;55.868;37.472;2024-03-29T16:37:24;98224.66;;;10.34;55.89
37858;BME280;23695;55.868;37.472;2024-03-29T16:40:10;98225.75;;;10.33;55.78
37858;BME280;23695;55.868;37.472;2024-03-29T16:42:40;98234.38;;;10.39;55.84
37858;BME280;23695;55.868;37.472;2024-03-29T16:45:06;98240.19;;;10.41;55.80
37858;BME280;23695;55.868;37.472;2024-03-29T16:47:58;98245.69;;;10.44;55.74
37858;BME280;23695;55.868;37.472;2024-03-29T16:50:27;98250.19;;;10.40;55.85
37858;BME280;23695;55.868;37.472;2024-03-29T16:53:02;98251.19;;;10.32;56.23
37858;BME280;23695;55.868;37.472;2024-03-29T16:55:31;98253.97;;;10.36;56.14
37858;BME280;23695;55.868;37.472;2024-03-29T16:58:17;98250.84;;;10.34;56.23
37858;BME280;23695;55.868;37.472;2024-03-29T17:01:06;98255.38;;;10.30;56.56
37858;BME280;23695;55.868;37.472;2024-03-29T17:07:49;98256.44;;;10.25;56.84
37858;BME280;23695;55.868;37.472;2024-03-29T17:10:47;98257.44;;;10.20;56.55
37858;BME280;23695;55.868;37.472;2024-03-29T17:13:36;98262.16;;;10.24;56.76
37858;BME280;23695;55.868;37.472;2024-03-29T17:46:34;98274.25;;;10.14;57.48
37858;BME280;23695;55.868;37.472;2024-03-29T17:49:00;98276.16;;;10.13;57.91
37858;BME280;23695;55.868;37.472;2024-03-29T17:51:26;98277.47;;;10.19;57.36
37858;BME280;23695;55.868;37.472;2024-03-29T17:53:54;98279.47;;;10.23;57.18
37858;BME280;23695;55.868;37.472;2024-03-29T17:56:20;98282.28;;;10.26;57.68
37858;BME280;23695;55.868;37.472;2024-03-29T17:58:46;98282.41;;;10.33;57.48
37858;BME280;23695;55.868;37.472;2024-03-29T18:01:26;98284.78;;;10.35;57.93
37858;BME280;23695;55.868;37.472;2024-03-29T18:03:52;98291.47;;;10.41;58.03
37858;BME280;23695;55.868;37.472;2024-03-29T18:06:18;98291.97;;;10.46;57.96
37858;BME280;23695;55.868;37.472;2024-03-29T18:08:44;98295.63;;;10.54;58.13
37858;BME280;23695;55.868;37.472;2024-03-29T18:11:13;98288.72;;;10.57;58.72
37858;BME280;23695;55.868;37.472;2024-03-29T18:13:39;98284.63;;;10.63;58.38
37858;BME280;23695;55.868;37.472;2024-03-29T18:16:05;98291.59;;;10.64;59.01
37858;BME280;23695;55.868;37.472;2024-03-29T18:18:34;98288.13;;;10.63;59.33
37858;BME280;23695;55.868;37.472;2024-03-29T18:21:04;98295.81;;;10.81;58.75
37858;BME280;23695;55.868;37.472;2024-03-29T18:23:33;98305.16;;;10.67;60.32
37858;BME280;23695;55.868;37.472;2024-03-29T18:25:59;98295.44;;;10.82;59.61
37858;BME280;23695;55.868;37.472;2024-03-29T18:28:25;98297.06;;;10.67;60.33
37858;BME280;23695;55.868;37.472;2024-03-29T18:30:51;98295.00;;;10.61;60.63